There are multiple Weather-warnings   Click here for more information


Meteo18 Weather Cam more information Meteo18 Weather Cam


Thunder radar more information blitzortung!


warning for Snow/Ice more information rain snow radar


Visit our other weather sites:

Template documentation
and downloads

And another site



Weather Underground History page Text

Daily Summary for January 11, 2018 Units:  English    Metric   Both
« Previous Day
Next Day »
Daily Weekly Monthly Yearly Custom
  High: Low: Average:
Temperature: TemperatureC °F 3.9 °F 6.1 °F
Dew Point: DewpointC °F 3.3 °F 5.3 °F
Humidity: Humidity % 84 % 94 %
Wind Speed: WindSpeedKMH mph 0.0 mph 1 mph
Wind Gust: WindSpeedGustKMH mph - -
Wind:- - SW
Pressure: PressurehPa in 1010.0 in -
Precipitation: 3.6 in    
Historical Graphs
 
 
Tabular Data for January 11, 2018
Time Temperature Dew Point Pressure Wind Wind Speed Wind Gust Humidity Rainfall Rate (Hourly)
TemperatureC °F DewpointC °F PressurehPa in Calm     Humidity % HourlyPrecipMM in
01:18 4.2 °F 3.8 °F 1010.4 in Calm     97 % 0.5 in
01:30 4.3 °F 3.9 °F 1010.0 in East 1.4 mph 1.6 mph 97 % 0.5 in
01:36 4.3 °F 3.9 °F 1010.0 in Calm   1.6 mph 97 % 0.5 in
01:49 4.2 °F 3.6 °F 1010.0 in Calm   1.6 mph 96 % 0.5 in
01:55 4.1 °F 3.5 °F 1010.0 in Calm   1.6 mph 96 % 0.5 in
02:01 4.1 °F 3.7 °F 1010.0 in Calm     97 % 0.5 in
02:07 4.0 °F 3.4 °F 1010.4 in Calm     96 % 0.5 in
02:09 3.9 °F 3.3 °F 1010.4 in Calm     96 % 0.3 in
02:15 4.0 °F 3.6 °F 1010.0 in Calm   3.2 mph 97 % 0.3 in
02:19 4.1 °F 3.7 °F 1010.0 in Calm   1.6 mph 97 % 0.5 in
02:21 4.1 °F 3.7 °F 1010.0 in Calm   1.6 mph 97 % 0.5 in
02:27 4.2 °F 3.8 °F 1010.0 in Calm   1.6 mph 97 % 0.5 in
02:35 4.3 °F 3.9 °F 1010.4 in Calm   1.6 mph 97 % 0.5 in
02:41 4.3 °F 3.9 °F 1010.4 in Calm     97 % 0.5 in
02:47 4.3 °F 3.9 °F 1010.4 in Calm     97 % 0.8 in
02:53 4.4 °F 4.0 °F 1010.4 in Calm     97 % 0.8 in
03:03 4.3 °F 3.9 °F 1010.4 in Calm     97 % 1.0 in
03:09 4.4 °F 4.0 °F 1010.4 in Calm     97 % 1.0 in
03:15 4.4 °F 4.0 °F 1010.4 in Calm     97 % 1.3 in
03:21 4.4 °F 4.0 °F 1010.7 in NE 1.4 mph 3.2 mph 97 % 1.3 in
03:29 4.4 °F 4.0 °F 1010.4 in ENE 1.4 mph 3.2 mph 97 % 1.5 in
03:35 4.4 °F 4.0 °F 1010.7 in Calm   1.6 mph 97 % 1.3 in
03:41 4.4 °F 4.0 °F 1010.7 in Calm   1.6 mph 97 % 1.3 in
03:47 4.4 °F 4.0 °F 1010.7 in Calm   1.6 mph 97 % 1.0 in
03:53 4.6 °F 4.2 °F 1010.7 in Calm     97 % 1.0 in
03:59 4.6 °F 4.2 °F 1010.7 in Calm     97 % 1.0 in
04:06 4.6 °F 4.2 °F 1010.7 in Calm     97 % 1.0 in
04:11 4.6 °F 4.2 °F 1010.7 in Calm     97 % 0.5 in
04:18 4.5 °F 4.1 °F 1010.7 in Calm   1.6 mph 97 % 0.5 in
04:24 4.3 °F 3.9 °F 1010.7 in Calm     97 % 0.0 in
04:30 4.3 °F 3.9 °F 1010.7 in Calm     97 % 0.0 in
04:36 4.4 °F 4.0 °F 1010.7 in Calm     97 % 0.0 in
04:42 4.4 °F 4.0 °F 1010.7 in Calm     97 % 0.0 in
04:48 4.4 °F 4.0 °F 1010.7 in Calm     97 % 0.0 in
04:54 4.4 °F 4.0 °F 1010.7 in Calm     97 % 0.0 in
05:00 4.5 °F 4.1 °F 1010.7 in Calm     97 % 0.0 in
05:08 4.6 °F 4.2 °F 1010.7 in Calm     97 % 0.0 in
05:14 4.6 °F 4.2 °F 1010.7 in Calm     97 % 0.0 in
05:20 4.7 °F 4.3 °F 1010.7 in Calm     97 % 0.0 in
05:26 4.7 °F 4.3 °F 1010.7 in Calm     97 % 0.0 in
05:34 4.7 °F 4.3 °F 1011.1 in Calm     97 % 0.0 in
05:46 4.6 °F 4.2 °F 1011.1 in Calm     97 % 0.3 in
05:52 4.7 °F 4.3 °F 1011.1 in Calm     97 % 0.3 in
05:59 4.7 °F 4.3 °F 1011.1 in Calm     97 % 0.3 in
06:05 4.7 °F 4.3 °F 1011.1 in Calm     97 % 0.3 in
06:31 4.7 °F 4.3 °F 1011.4 in Calm     97 % 0.3 in
06:43 4.8 °F 4.4 °F 1011.4 in Calm     97 % 0.0 in
06:49 4.8 °F 4.4 °F 1011.7 in Calm     97 % 0.0 in
07:01 4.9 °F 4.5 °F 1011.7 in Calm   1.6 mph 97 % 0.0 in
07:07 5.0 °F 4.6 °F 1011.7 in Calm   1.6 mph 97 % 0.0 in
07:13 4.9 °F 4.5 °F 1011.7 in Calm     97 % 0.0 in
07:19 4.9 °F 4.5 °F 1011.7 in Calm   1.6 mph 97 % 0.0 in
07:25 4.9 °F 4.5 °F 1011.7 in Calm   1.6 mph 97 % 0.0 in
07:31 4.9 °F 4.5 °F 1012.1 in Calm     97 % 0.0 in
07:37 4.9 °F 4.5 °F 1012.1 in East 1.4 mph 1.6 mph 97 % 0.0 in
07:43 4.9 °F 4.5 °F 1012.1 in Calm     97 % 0.0 in
07:51 4.8 °F 4.4 °F 1012.1 in Calm     97 % 0.0 in
07:59 4.9 °F 4.5 °F 1012.4 in Calm   1.6 mph 97 % 0.0 in
08:05 4.9 °F 4.5 °F 1012.4 in Calm     97 % 0.0 in
08:11 5.1 °F 4.7 °F 1012.4 in Calm   1.6 mph 97 % 0.0 in
08:15 5.1 °F 4.7 °F 1012.4 in Calm     97 % 0.0 in
08:23 5.1 °F 4.7 °F 1012.8 in Calm     97 % 0.0 in
08:33 5.2 °F 4.8 °F 1012.8 in Calm   1.6 mph 97 % 0.0 in
08:41 5.2 °F 4.8 °F 1012.8 in Calm     97 % 0.0 in
08:47 5.2 °F 4.8 °F 1012.8 in Calm     97 % 0.0 in
08:59 5.2 °F 4.8 °F 1013.1 in Calm     97 % 0.0 in
09:05 5.2 °F 4.8 °F 1013.4 in Calm     97 % 0.0 in
09:11 5.3 °F 4.9 °F 1013.4 in Calm     97 % 0.0 in
09:17 5.3 °F 4.9 °F 1013.4 in SW 3.2 mph 3.2 mph 97 % 0.0 in
09:23 5.3 °F 4.9 °F 1013.4 in SSW 1.4 mph 1.6 mph 97 % 0.0 in
09:29 5.4 °F 5.0 °F 1013.4 in SSW 1.4 mph 3.2 mph 97 % 0.0 in
09:35 5.4 °F 5.0 °F 1013.8 in Calm   1.6 mph 97 % 0.0 in
09:41 5.6 °F 5.2 °F 1013.8 in SW 1.4 mph 3.2 mph 97 % 0.0 in
09:50 5.7 °F 5.3 °F 1014.1 in Calm   1.6 mph 97 % 0.0 in
09:57 5.8 °F 5.4 °F 1014.1 in Calm   3.2 mph 97 % 0.0 in
10:03 5.8 °F 5.4 °F 1014.4 in SW 1.4 mph 4.8 mph 97 % 0.0 in
10:09 5.9 °F 5.5 °F 1014.4 in SSW 1.4 mph 3.2 mph 97 % 0.0 in
10:15 6.0 °F 5.6 °F 1014.4 in South 1.4 mph 6.4 mph 97 % 0.0 in
10:21 6.1 °F 5.7 °F 1014.4 in SW 1.4 mph 3.2 mph 97 % 0.0 in
10:27 6.1 °F 5.7 °F 1014.4 in SW 1.4 mph 3.2 mph 97 % 0.0 in
10:33 6.2 °F 5.8 °F 1014.8 in SW 1.4 mph 3.2 mph 97 % 0.0 in
10:41 6.2 °F 5.8 °F 1014.8 in Calm     97 % 0.0 in
10:47 6.3 °F 5.9 °F 1014.8 in SW 1.4 mph 3.2 mph 97 % 0.0 in
10:59 6.4 °F 6.0 °F 1015.1 in SW 3.2 mph 6.4 mph 97 % 0.0 in
11:05 6.6 °F 6.2 °F 1015.1 in West 1.4 mph 3.2 mph 97 % 0.0 in
11:11 6.6 °F 6.2 °F 1015.1 in WSW 1.4 mph 6.4 mph 97 % 0.0 in
11:17 6.7 °F 6.3 °F 1015.1 in WSW 4.7 mph 4.8 mph 97 % 0.0 in
11:23 6.8 °F 6.2 °F 1015.5 in West 4.7 mph 4.8 mph 96 % 0.0 in
11:29 6.9 °F 6.3 °F 1015.5 in West 3.2 mph 3.2 mph 96 % 0.0 in
11:47 7.1 °F 6.4 °F 1015.5 in West 1.4 mph 6.4 mph 95 % 0.0 in
11:59 7.2 °F 6.3 °F 1015.5 in WSW 6.4 mph 9.7 mph 94 % 0.0 in
12:05 7.3 °F 6.4 °F 1015.5 in West 3.2 mph 3.2 mph 94 % 0.0 in
12:17 7.4 °F 6.3 °F 1015.8 in West 3.2 mph 4.8 mph 93 % 0.0 in
12:23 7.4 °F 6.3 °F 1015.8 in WSW 1.4 mph 4.8 mph 93 % 0.0 in
12:29 7.6 °F 6.5 °F 1015.8 in WSW 4.7 mph 4.8 mph 93 % 0.0 in
12:35 7.6 °F 6.4 °F 1015.8 in Calm   3.2 mph 92 % 0.0 in
12:41 7.6 °F 6.4 °F 1015.8 in Calm   1.6 mph 92 % 0.0 in
12:48 7.7 °F 6.5 °F 1015.8 in Calm   3.2 mph 92 % 0.0 in
12:54 7.7 °F 6.3 °F 1015.8 in Calm   1.6 mph 91 % 0.0 in
13:08 7.8 °F 6.4 °F 1015.8 in Calm   3.2 mph 91 % 0.0 in
13:14 7.8 °F 6.4 °F 1015.8 in SW 1.4 mph 6.4 mph 91 % 0.0 in
13:22 7.8 °F 6.6 °F 1015.8 in Calm   3.2 mph 92 % 0.0 in
13:28 7.8 °F 6.6 °F 1015.8 in WNW 3.2 mph 4.8 mph 92 % 0.0 in
13:34 7.9 °F 6.5 °F 1015.8 in West 1.4 mph 3.2 mph 91 % 0.0 in
13:40 7.9 °F 6.5 °F 1015.8 in WNW 4.7 mph 8.0 mph 91 % 0.0 in
13:46 8.2 °F 6.7 °F 1015.8 in Calm   1.6 mph 90 % 0.0 in
13:52 8.1 °F 6.4 °F 1015.8 in WNW 4.7 mph 8.0 mph 89 % 0.0 in
13:58 8.1 °F 6.4 °F 1015.8 in WNW 1.4 mph 4.8 mph 89 % 0.0 in
14:04 8.1 °F 6.2 °F 1015.8 in Calm   8.0 mph 88 % 0.0 in
14:10 8.1 °F 6.2 °F 1016.1 in Calm   3.2 mph 88 % 0.0 in
14:16 8.2 °F 6.3 °F 1016.1 in West 3.2 mph 3.2 mph 88 % 0.0 in
14:22 8.2 °F 6.2 °F 1016.1 in Calm   3.2 mph 87 % 0.0 in
14:28 8.6 °F 6.6 °F 1016.1 in Calm   3.2 mph 87 % 0.0 in
14:38 8.4 °F 5.9 °F 1016.1 in WNW 3.2 mph 3.2 mph 84 % 0.0 in
14:44 8.4 °F 5.9 °F 1016.5 in NNW 3.2 mph 6.4 mph 84 % 0.0 in
14:50 8.4 °F 5.9 °F 1016.5 in NW 3.2 mph 9.7 mph 84 % 0.0 in
14:56 8.3 °F 5.9 °F 1016.5 in NNW 6.4 mph 6.4 mph 85 % 0.0 in
15:06 8.1 °F 6.1 °F 1016.8 in Calm   3.2 mph 87 % 0.0 in
15:12 8.1 °F 6.1 °F 1016.8 in Calm   1.6 mph 87 % 0.0 in
15:18 8.2 °F 6.2 °F 1016.8 in West 1.4 mph 3.2 mph 87 % 0.0 in
15:24 8.2 °F 6.2 °F 1016.8 in Calm   1.6 mph 87 % 0.0 in
15:30 8.2 °F 6.0 °F 1016.8 in Calm   4.8 mph 86 % 0.0 in
15:36 8.1 °F 6.1 °F 1016.8 in West 3.2 mph 4.8 mph 87 % 0.0 in
15:46 8.2 °F 6.3 °F 1017.2 in Calm   3.2 mph 88 % 0.0 in
15:52 8.2 °F 6.2 °F 1017.2 in WNW 4.7 mph 4.8 mph 87 % 0.0 in
15:58 8.1 °F 6.1 °F 1017.2 in WNW 4.7 mph 8.0 mph 87 % 0.0 in
16:04 8.1 °F 6.1 °F 1017.2 in West 3.2 mph 3.2 mph 87 % 0.0 in
16:10 8.1 °F 6.1 °F 1017.5 in Calm   4.8 mph 87 % 0.0 in
16:16 8.1 °F 6.1 °F 1017.5 in Calm   1.6 mph 87 % 0.0 in
16:24 8.0 °F 6.1 °F 1017.5 in Calm   1.6 mph 88 % 0.0 in
16:33 7.9 °F 6.0 °F 1017.8 in Calm   1.6 mph 88 % 0.0 in
16:38 7.9 °F 6.0 °F 1017.8 in Calm   3.2 mph 88 % 0.0 in
16:44 7.9 °F 6.0 °F 1017.8 in Calm   1.6 mph 88 % 0.0 in
16:58 7.8 °F 5.9 °F 1017.8 in WNW 1.4 mph 1.6 mph 88 % 0.0 in
17:06 7.8 °F 5.9 °F 1017.8 in NNW 1.4 mph 4.8 mph 88 % 0.0 in
17:12 7.7 °F 5.8 °F 1018.2 in Calm   4.8 mph 88 % 0.0 in
17:14 7.7 °F 5.8 °F 1018.2 in WNW 1.4 mph 8.0 mph 88 % 0.0 in
17:18 7.7 °F 5.8 °F 1018.2 in NW 1.4 mph 6.4 mph 88 % 0.0 in
17:28 7.4 °F 5.9 °F 1018.2 in WNW 1.4 mph 3.2 mph 90 % 0.0 in
17:36 7.2 °F 5.8 °F 1018.5 in NW 1.4 mph 3.2 mph 91 % 0.0 in
17:44 7.1 °F 5.9 °F 1018.5 in WNW 1.4 mph 4.8 mph 92 % 0.0 in
17:52 6.9 °F 5.8 °F 1018.8 in WNW 3.2 mph 4.8 mph 93 % 0.3 in
17:58 6.9 °F 5.8 °F 1018.8 in West 4.7 mph 6.4 mph 93 % 0.3 in
18:04 6.9 °F 5.8 °F 1018.8 in Calm   4.8 mph 93 % 0.3 in
18:16 6.9 °F 6.0 °F 1018.8 in WNW 1.4 mph 3.2 mph 94 % 0.3 in
18:25 6.9 °F 5.8 °F 1018.8 in WNW 1.4 mph 3.2 mph 93 % 0.3 in
18:31 6.8 °F 5.7 °F 1018.8 in Calm   1.6 mph 93 % 0.3 in
18:37 6.8 °F 5.7 °F 1018.8 in Calm   3.2 mph 93 % 0.3 in
18:43 6.8 °F 5.9 °F 1019.2 in WNW 1.4 mph 1.6 mph 94 % 0.3 in
18:55 6.7 °F 5.8 °F 1019.2 in Calm   1.6 mph 94 % 0.0 in
19:01 6.7 °F 5.8 °F 1019.2 in Calm     94 % 0.0 in
19:07 6.7 °F 5.8 °F 1019.2 in Calm     94 % 0.0 in
19:13 6.7 °F 5.8 °F 1019.2 in Calm   1.6 mph 94 % 0.0 in
19:23 6.6 °F 5.7 °F 1019.5 in Calm     94 % 0.0 in
19:31 6.6 °F 5.7 °F 1019.5 in Calm     94 % 0.0 in
19:37 6.5 °F 5.6 °F 1019.5 in Calm     94 % 0.0 in
19:43 6.5 °F 5.8 °F 1019.5 in Calm     95 % 0.0 in
19:49 6.5 °F 5.8 °F 1019.5 in Calm     95 % 0.0 in
19:55 6.5 °F 5.8 °F 1019.9 in Calm     95 % 0.0 in
20:01 6.5 °F 5.8 °F 1019.9 in Calm     95 % 0.0 in
20:07 6.5 °F 5.8 °F 1019.9 in Calm   1.6 mph 95 % 0.0 in
20:16 6.6 °F 5.9 °F 1019.9 in Calm     95 % 0.0 in
20:22 6.6 °F 5.9 °F 1019.9 in Calm     95 % 0.0 in
20:28 6.6 °F 5.9 °F 1020.2 in Calm     95 % 0.0 in
20:34 6.6 °F 5.9 °F 1020.2 in Calm     95 % 0.0 in
20:40 6.6 °F 5.9 °F 1020.2 in Calm     95 % 0.0 in
20:46 6.6 °F 5.7 °F 1020.2 in Calm     94 % 0.0 in
20:52 6.6 °F 5.7 °F 1020.2 in Calm     94 % 0.0 in
20:58 6.6 °F 5.7 °F 1020.5 in Calm     94 % 0.0 in
21:04 6.6 °F 5.9 °F 1020.5 in Calm   1.6 mph 95 % 0.0 in
21:10 6.6 °F 5.9 °F 1020.5 in Calm   1.6 mph 95 % 0.0 in
21:16 6.5 °F 5.8 °F 1020.5 in Calm     95 % 0.0 in
21:26 6.5 °F 5.8 °F 1020.5 in Calm     95 % 0.0 in
21:32 6.4 °F 5.7 °F 1020.5 in Calm   1.6 mph 95 % 0.0 in
21:38 6.4 °F 5.7 °F 1020.5 in Calm     95 % 0.0 in
21:44 6.4 °F 5.7 °F 1020.9 in Calm     95 % 0.0 in
21:50 6.4 °F 5.7 °F 1020.9 in Calm   1.6 mph 95 % 0.0 in
22:08 6.4 °F 5.8 °F 1020.9 in Calm   1.6 mph 96 % 0.3 in
22:15 6.4 °F 5.8 °F 1020.9 in Calm   1.6 mph 96 % 0.3 in
22:31 6.4 °F 5.8 °F 1021.2 in Calm   3.2 mph 96 % 0.5 in
22:37 6.5 °F 5.9 °F 1021.2 in NE 3.2 mph 6.4 mph 96 % 0.5 in
22:43 6.4 °F 5.8 °F 1021.2 in North 4.7 mph 6.4 mph 96 % 0.5 in
22:49 6.4 °F 5.8 °F 1021.2 in NW 1.4 mph 6.4 mph 96 % 0.5 in
22:57 6.4 °F 5.8 °F 1021.2 in NNE 3.2 mph 8.0 mph 96 % 0.5 in
23:03 6.4 °F 5.8 °F 1021.2 in NNW 6.4 mph 14.5 mph 96 % 0.5 in
23:09 6.4 °F 5.8 °F 1021.2 in North 4.7 mph 6.4 mph 96 % 0.5 in
23:15 6.4 °F 5.8 °F 1021.2 in North 4.7 mph 9.7 mph 96 % 0.5 in
23:21 6.3 °F 5.7 °F 1021.2 in NNE 3.2 mph 9.7 mph 96 % 0.5 in
23:27 6.3 °F 5.7 °F 1021.6 in WNW 1.4 mph 4.8 mph 96 % 0.5 in
23:33 6.4 °F 5.8 °F 1021.6 in NNE 3.2 mph 9.7 mph 96 % 0.5 in
23:39 6.3 °F 5.7 °F 1021.6 in NNE 6.4 mph 8.0 mph 96 % 0.5 in
23:51 6.3 °F 5.7 °F 1021.6 in NE 3.2 mph 4.8 mph 96 % 0.5 in
23:57 6.2 °F 5.6 °F 1021.6 in North 4.7 mph 8.0 mph 96 % 0.3 in
Meteo18
Compliments of Weather Underground - 4 mb

Script developed by  Jim McMurry - jmcmurry@mwt.net Adapted for the template by  Wim van der Kuil - Leuven-Template.eu

You find our weather info also at:

European Weather Network

Weather Underground

Equipment we use:

Weather-station
Davis Vue

Weather-program
Meteobridge

Weather-server
Raspberry PI 2 B+

Provider
1 and 1

Davis Vue

Meteobridge

Raspberry PI 2 B+

1 and 1